Bernal, New Mexico
Current Conditions -  °F | °C
As of 10:53 PM on Tuesday 25 Nov 2014 (Local Time) from KLVS Reporting Station
Clear Clear  
Wind Chill: 19°   Ceiling: Unl
Heat Index: 28°   Visibility: 10mi
Dew Point: 14°   Wind: 9mph
Humidity: 56%   Direction: 60°ENE
Pressure: 30.12"   Gusts: NA
Location:  35.3928°N, 105.316°W
Report Text: KLVS 260553Z AUTO 06008KT 10SM CLR M02/M10 A3012 RMK AO2 SLP189 T10221100 10056 21028 55002
Loading
Personal Weather Stations






























Interactive Weather Map New forecast layout! Learn more

10-Day Weather Forecast

Advertisements
Track Severe Weather on mobile